Weather History for KHCO - February, 2013

Change the Weather History Date:

Monday, February 18, 2013

  Actual Average (KGFK) Record (KGFK)
Temperature  
Mean Temperature 10 °F 13 °F  
Max Temperature 26 °F 23 °F 45 °F (2002)
Min Temperature -7 °F 3 °F -35 °F (1967)
Degree Days  
Heating Degree Days 56 52  
Month to date heating degree days 985  
Since 1 July heating degree days 6651  
Cooling Degree Days 0 0  
Month to date cooling degree days 0  
Year to date cooling degree days 0  
Moisture  
Dew Point 4 °F    
Average Humidity 88    
Maximum Humidity 100    
Minimum Humidity 77    
Precipitation  
Precipitation 0.01 in 0.02 in 0.09 in (1986)
Month to date precipitation 0.28  
Year to date precipitation 0.83  
Snow  
Snow 0.00 in 0.20 in - ()
Month to date snowfall 3.9  
Since 1 July snowfall 34.5  
Snow Depth -    
Sea Level Pressure  
Sea Level Pressure 29.84 in    
Wind  
Wind Speed 25 mph (NNW)    
Max Wind Speed 40 mph    
Max Gust Speed 52 mph    
Visibility 1 miles    
Events Snow    
T = Trace of Precipitation, MM = Missing Value Source: NWS Daily Summary

Daily Weather History Graph

Daily Weather History Graph

Search for Another Location

Airport or City:

Trip Planner

Search our weather history database for the weather conditions in past years. The results will help you decide how hot, cold, wet, or windy it might be!

Date:

Astronomy

Feb. 18, 2013 Rise Set
Actual Time 7:29 AM CST 5:54 PM CST
Civil Twilight 6:57 AM CST 6:26 PM CST
Nautical Twilight 6:20 AM CST 7:03 PM CST
Astronomical Twilight 5:44 AM CST 7:39 PM CST
Moon 11:26 AM CST (2/18) 2:24 AM CST (2/18)
Length of Visible Light 11h 28m
Length of Day
10h 24m
First Quarter, 58% of the Moon is Illuminated
Feb 18
First Quarter
Feb 25
Full
Mar 4
Last Quarter
Mar 11
New
Mar 19
First Quarter

Hourly Weather History & Observations

Time (CST) Temp. Windchill Dew Point Humidity Pressure Visibility Wind Dir Wind Speed Gust Speed Precip Events Conditions
12:14 AM 26.6 °F 15.7 °F 26.6 °F 100% 29.49 in 2.5 mi North 12.7 mph - N/A Snow Light Snow
12:34 AM 26.6 °F 15.7 °F 26.6 °F 100% 29.49 in 3.0 mi North 12.7 mph - N/A Snow Light Snow
12:54 AM 26.6 °F 16.2 °F 26.6 °F 100% 29.50 in 4.0 mi North 11.5 mph - N/A Snow Light Snow
1:14 AM 26.6 °F 15.7 °F 26.6 °F 100% 29.50 in 5.0 mi North 12.7 mph - N/A Snow Light Snow
1:34 AM 26.6 °F 15.2 °F 26.6 °F 100% 29.50 in 4.0 mi North 13.8 mph - N/A Snow Light Snow
1:54 AM 26.6 °F 15.2 °F 26.6 °F 100% 29.50 in 3.0 mi North 13.8 mph - N/A Snow Light Snow
2:14 AM 26.6 °F 12.7 °F 26.6 °F 100% 29.50 in 2.0 mi North 20.7 mph 26.5 mph 0.01 in Snow Light Snow
2:34 AM 26.6 °F 12.4 °F 24.8 °F 93% 29.52 in 2.5 mi North 21.9 mph 28.8 mph 0.01 in Snow Light Snow
2:54 AM 23.0 °F 6.9 °F 21.2 °F 93% 29.53 in 2.0 mi North 24.2 mph 29.9 mph 0.01 in Snow Light Snow
3:14 AM 21.2 °F 3.5 °F 21.2 °F 100% 29.53 in 1.0 mi North 27.6 mph 32.2 mph N/A Snow Light Snow
3:34 AM 21.2 °F 3.5 °F 19.4 °F 93% 29.54 in 1.0 mi North 27.6 mph 33.4 mph N/A Snow Light Snow
3:54 AM 19.4 °F 0.2 °F 17.6 °F 93% 29.56 in 1.0 mi NNW 31.1 mph - N/A Snow Light Snow
4:14 AM 17.6 °F -2.5 °F 17.6 °F 100% 29.58 in 0.8 mi NNW 32.2 mph 42.6 mph N/A Snow Snow
4:34 AM 17.6 °F -2.8 °F 15.8 °F 93% 29.59 in 0.5 mi North 33.4 mph 43.7 mph N/A Snow Snow
4:53 AM 15.8 °F -6.1 °F 14.0 °F 93% 29.60 in 0.5 mi North 36.8 mph 49.5 mph N/A Snow Snow
5:14 AM 15.8 °F -5.8 °F 14.0 °F 93% 29.61 in 0.5 mi North 35.7 mph 43.7 mph N/A Snow Snow
5:34 AM 14.0 °F -8.3 °F 12.2 °F 93% 29.63 in 0.5 mi NNW 35.7 mph 42.6 mph N/A Snow Snow
5:53 AM 12.2 °F -11.8 °F 10.4 °F 92% 29.64 in 0.2 mi NNW 40.3 mph 48.3 mph N/A Snow Heavy Snow
6:14 AM 12.2 °F -10.5 °F 10.4 °F 92% 29.67 in 0.5 mi North 34.5 mph 51.8 mph N/A Snow Snow
6:34 AM 12.2 °F -10.5 °F 10.4 °F 92% 29.68 in 0.5 mi North 34.5 mph 42.6 mph N/A Snow Snow
6:53 AM 10.4 °F -12.7 °F 8.6 °F 92% 29.69 in 0.5 mi NNW 33.4 mph 47.2 mph N/A Snow Snow
7:14 AM 10.4 °F -12.3 °F 8.6 °F 92% 29.71 in 0.5 mi North 32.2 mph 36.8 mph N/A Snow Snow
7:34 AM 8.6 °F -15.7 °F 6.8 °F 92% 29.71 in 0.2 mi North 35.7 mph 47.2 mph N/A Snow Snow
8:14 AM 8.6 °F -14.8 °F 5.0 °F 85% 29.74 in 0.2 mi North 32.2 mph 48.3 mph N/A Snow Snow
8:34 AM 8.6 °F -15.1 °F 5.0 °F 85% 29.75 in 0.2 mi North 33.4 mph 42.6 mph N/A Snow Snow
8:53 AM 8.6 °F -15.4 °F 5.0 °F 85% 29.76 in 0.2 mi North 34.5 mph 42.6 mph N/A Snow Snow
9:14 AM 6.8 °F -17.9 °F 3.2 °F 85% 29.77 in 0.2 mi North 34.5 mph 41.4 mph N/A Snow Snow
9:34 AM 6.8 °F -17.6 °F 3.2 °F 85% 29.79 in 0.2 mi North 33.4 mph 48.3 mph N/A Snow Snow
9:53 AM 6.8 °F -16.6 °F 3.2 °F 85% 29.80 in 0.2 mi North 29.9 mph 47.2 mph N/A Snow Snow
10:14 AM 5.0 °F -19.7 °F 1.4 °F 85% 29.80 in 0.2 mi NNW 32.2 mph 44.9 mph N/A Snow Snow
10:34 AM 5.0 °F -19.4 °F 1.4 °F 85% 29.82 in 0.2 mi North 31.1 mph 43.7 mph N/A Snow Snow
10:53 AM 3.2 °F -23.2 °F -0.4 °F 85% 29.83 in 0.2 mi North 35.7 mph 42.6 mph N/A Snow Snow
11:14 AM 3.2 °F -22.9 °F 1.4 °F 92% 29.84 in 0.2 mi North 34.5 mph 40.3 mph N/A Snow Light Snow
11:34 AM 3.2 °F -22.2 °F -0.4 °F 85% 29.85 in 0.2 mi North 32.2 mph 42.6 mph N/A Snow Light Snow
11:54 AM 3.2 °F -22.5 °F -0.4 °F 85% 29.85 in 0.2 mi North 33.4 mph 42.6 mph N/A Snow Light Snow
12:14 PM 3.2 °F -21.8 °F -0.4 °F 85% 29.87 in 0.2 mi North 31.1 mph 42.6 mph N/A Snow Light Snow
12:34 PM 3.2 °F -21.8 °F -0.4 °F 85% 29.88 in 0.2 mi NNW 31.1 mph 36.8 mph N/A Snow Light Snow
12:54 PM 3.2 °F -22.2 °F -0.4 °F 85% 29.89 in 0.2 mi NNW 32.2 mph 40.3 mph N/A Snow Snow
1:14 PM 3.2 °F -21.5 °F -0.4 °F 85% 29.90 in 0.2 mi NNW 29.9 mph 41.4 mph N/A Snow Snow
1:34 PM 3.2 °F -23.2 °F -0.4 °F 85% 29.89 in 0.2 mi NNW 35.7 mph 41.4 mph N/A Snow Light Snow
1:54 PM 3.2 °F -21.5 °F -0.4 °F 85% 29.91 in 0.2 mi NNW 29.9 mph 36.8 mph N/A Snow Light Snow
2:14 PM 3.2 °F -23.2 °F -2.2 °F 78% 29.91 in 0.2 mi NNW 35.7 mph 40.3 mph N/A Snow Light Snow
2:34 PM 3.2 °F -21.8 °F -2.2 °F 78% 29.93 in 0.2 mi NNW 31.1 mph 39.1 mph N/A Snow Light Snow
2:53 PM 3.2 °F -22.5 °F -0.4 °F 85% 29.93 in 0.2 mi NNW 33.4 mph 40.3 mph N/A Snow Light Snow
3:14 PM 1.4 °F -24.3 °F -2.2 °F 85% 29.94 in 0.2 mi NNW 31.1 mph 38.0 mph N/A Snow Light Snow
3:34 PM 1.4 °F -24.3 °F -2.2 °F 85% 29.95 in 0.5 mi North 31.1 mph 36.8 mph N/A Snow Light Snow
3:53 PM 1.4 °F -24.3 °F -2.2 °F 85% 29.96 in 0.5 mi North 31.1 mph 39.1 mph N/A Snow Light Snow
4:14 PM 1.4 °F -23.5 °F -2.2 °F 85% 29.97 in 0.5 mi NNW 28.8 mph 39.1 mph N/A Snow Light Snow
4:34 PM 1.4 °F -24.3 °F -2.2 °F 85% 29.98 in 0.5 mi North 31.1 mph 41.4 mph N/A Snow Light Snow
4:53 PM 1.4 °F -23.9 °F -2.2 °F 85% 29.99 in 0.8 mi North 29.9 mph 38.0 mph N/A Snow Light Snow
5:14 PM 1.4 °F -23.2 °F -2.2 °F 85% 30.00 in 1.0 mi North 27.6 mph 38.0 mph N/A   Overcast
5:34 PM 1.4 °F -24.3 °F -2.2 °F 85% 30.01 in 0.8 mi North 31.1 mph 39.1 mph N/A   Overcast
5:53 PM 1.4 °F -23.2 °F -2.2 °F 85% 30.02 in 0.8 mi North 27.6 mph 39.1 mph N/A Snow Light Snow
6:14 PM 1.4 °F -22.7 °F -2.2 °F 85% 30.04 in 0.8 mi North 26.5 mph 36.8 mph N/A   Overcast
6:34 PM 1.4 °F -23.5 °F -2.2 °F 85% 30.05 in 0.8 mi North 28.8 mph 39.1 mph N/A   Overcast
6:53 PM 1.4 °F -23.2 °F -2.2 °F 85% 30.05 in 1.0 mi North 27.6 mph 34.5 mph N/A   Overcast
7:14 PM 1.4 °F -22.7 °F -2.2 °F 85% 30.06 in 1.0 mi NNW 26.5 mph 34.5 mph N/A   Overcast
7:34 PM -0.4 °F -25.2 °F -4.0 °F 85% 30.07 in 1.0 mi NNW 26.5 mph 34.5 mph N/A   Overcast
7:54 PM -0.4 °F -24.3 °F -4.0 °F 85% 30.07 in 0.8 mi NNW 24.2 mph 32.2 mph N/A   Overcast
8:14 PM -0.4 °F -25.6 °F -5.8 °F 78% 30.08 in 0.8 mi NNW 27.6 mph 35.7 mph N/A   Overcast
8:34 PM -2.2 °F -28.4 °F -5.8 °F 85% 30.09 in 1.0 mi NNW 28.8 mph 34.5 mph N/A   Overcast
8:54 PM -2.2 °F -27.6 °F -5.8 °F 85% 30.09 in 0.8 mi NNW 26.5 mph 33.4 mph N/A   Overcast
9:14 PM -2.2 °F -28.0 °F -5.8 °F 85% 30.10 in 1.0 mi NNW 27.6 mph 34.5 mph N/A   Overcast
9:34 PM -2.2 °F -28.8 °F -7.6 °F 78% 30.10 in 0.8 mi NNW 29.9 mph 33.4 mph N/A   Overcast
9:54 PM -4.0 °F -29.1 °F -7.6 °F 85% 30.11 in 1.0 mi NNW 24.2 mph 34.5 mph N/A   Overcast
10:14 PM -4.0 °F -30.4 °F -9.4 °F 78% 30.12 in 1.0 mi NNW 27.6 mph 33.4 mph N/A   Haze
10:34 PM -5.8 °F -31.5 °F -9.4 °F 84% 30.13 in 2.0 mi NNW 24.2 mph - N/A   Haze
10:53 PM -5.8 °F -32.0 °F -11.2 °F 77% 30.13 in 2.0 mi NNW 25.3 mph 28.8 mph N/A   Haze
11:14 PM -7.6 °F -33.9 °F -11.2 °F 84% 30.15 in 2.0 mi NNW 24.2 mph - N/A   Haze
11:34 PM -7.6 °F -33.4 °F -11.2 °F 84% 30.15 in 2.5 mi NNW 23.0 mph 27.6 mph N/A   Haze
11:54 PM -7.6 °F -33.4 °F -13.0 °F 77% 30.16 in 1.8 mi NNW 23.0 mph 31.1 mph N/A   Haze